Time;durP1;ratioP1;P1;durP2;ratioP2;P2;SDS_P1;SDS_P2;PMS_P1;PMS_P2;Temp;Humidity;BMP_temperature;BMP_pressure;BME280_temperature;BME280_humidity;BME280_pressure;Samples;Min_cycle;Max_cycle;Signal;HPM_P1;HPM_P2
2022/04/17 00:03:00;;;;;;;0.00;0.00;;;;;;;9.12;43.38;103050.34;10427613;28;20405;-79
2022/04/17 00:08:03;;;;;;;0.10;0.10;;;;;;;9.05;44.02;103049.09;10412282;28;20363;-79
2022/04/17 00:13:04;;;;;;;0.00;0.00;;;;;;;8.80;44.82;103049.13;10412872;28;20124;-78
2022/04/17 00:18:10;;;;;;;0.00;0.00;;;;;;;8.78;44.25;103050.69;10424986;28;20042;-78
2022/04/17 00:23:12;;;;;;;0.00;0.00;;;;;;;8.98;43.69;103048.56;10412589;28;20463;-78
2022/04/17 00:28:13;;;;;;;46.35;28.65;;;;;;;8.87;43.83;103048.75;10453047;28;20140;-78
2022/04/17 00:33:15;;;;;;;0.00;0.00;;;;;;;8.87;43.92;103051.31;10451316;28;20132;-78
2022/04/17 00:38:16;;;;;;;0.00;0.00;;;;;;;8.69;44.55;103042.34;10409507;28;20448;-78
2022/04/17 00:43:30;;;;;;;0.00;0.00;;;;;;;8.46;45.22;103039.06;10410842;28;20528;-79
2022/04/17 00:48:31;;;;;;;0.00;0.00;;;;;;;7.73;48.22;103023.75;10419741;28;20056;-79
2022/04/17 00:53:34;;;;;;;0.00;0.00;;;;;;;7.93;47.17;103029.41;10448801;28;20500;-78
2022/04/17 00:58:37;;;;;;;0.00;0.00;;;;;;;8.26;45.72;103037.69;10451764;28;20156;-78
2022/04/17 01:03:38;;;;;;;0.00;0.00;;;;;;;7.96;45.86;103032.19;10414128;28;20088;-78
2022/04/17 01:08:41;;;;;;;0.00;0.00;;;;;;;8.05;45.95;103029.38;10410763;28;20050;-78
2022/04/17 01:13:43;;;;;;;0.10;0.10;;;;;;;7.20;48.97;103023.28;10409376;28;20049;-79
2022/04/17 01:19:02;;;;;;;0.00;0.00;;;;;;;7.56;47.44;103025.06;10439205;28;20455;-78
2022/04/17 01:29:53;;;;;;;0.00;0.00;;;;;;;7.50;48.13;103023.75;10412778;28;20132;-77
2022/04/17 01:34:54;;;;;;;0.00;0.00;;;;;;;7.18;50.02;103014.59;10448424;28;20061;-78
2022/04/17 01:39:56;;;;;;;0.00;0.00;;;;;;;6.62;52.24;103013.91;10448402;28;20551;-78
2022/04/17 01:44:57;;;;;;;0.00;0.00;;;;;;;7.25;48.91;103011.69;10434273;28;20119;-77
2022/04/17 01:49:59;;;;;;;0.00;0.00;;;;;;;7.24;47.84;103023.63;10408508;28;20077;-78
2022/04/17 01:55:00;;;;;;;0.00;0.00;;;;;;;6.98;49.06;103014.00;10409348;28;20124;-78
2022/04/17 02:00:03;;;;;;;0.00;0.00;;;;;;;7.21;47.12;103022.53;10408350;28;20584;-78
2022/04/17 02:05:06;;;;;;;0.00;0.00;;;;;;;6.53;50.43;103018.31;10404467;28;20041;-78
2022/04/17 02:10:08;;;;;;;0.00;0.00;;;;;;;6.82;50.10;103018.00;10429758;28;20067;-78
2022/04/17 02:15:09;;;;;;;0.00;0.00;;;;;;;5.99;54.06;103015.09;10448642;28;20057;-77
2022/04/17 02:20:11;;;;;;;0.00;0.00;;;;;;;6.25;53.79;103013.66;10426160;28;20131;-78
2022/04/17 02:25:13;;;;;;;0.00;0.00;;;;;;;6.01;55.01;103018.63;10388466;28;20048;-76
2022/04/17 02:30:15;;;;;;;0.00;0.00;;;;;;;5.44;56.71;103031.09;10396037;28;20045;-78
2022/04/17 02:35:16;;;;;;;0.08;0.08;;;;;;;5.71;57.44;103030.75;10389017;28;20073;-78
2022/04/17 02:40:18;;;;;;;0.00;0.00;;;;;;;5.43;57.85;103019.97;10423863;28;20165;-78
2022/04/17 02:45:20;;;;;;;0.00;0.00;;;;;;;5.89;54.89;103017.63;10407459;28;20129;-78
2022/04/17 02:50:23;;;;;;;0.00;0.00;;;;;;;5.81;55.36;103016.13;10400969;28;20128;-77
2022/04/17 02:55:24;;;;;;;0.00;0.00;;;;;;;5.44;59.38;103021.75;10408823;28;20493;-77
2022/04/17 03:06:15;;;;;;;0.00;0.00;;;;;;;5.10;59.46;103013.00;10404288;28;20124;-76
2022/04/17 03:11:17;;;;;;;0.00;0.00;;;;;;;5.23;58.26;103005.56;10410822;28;20475;-76
2022/04/17 03:16:18;;;;;;;0.00;0.00;;;;;;;4.64;60.10;103016.09;10399218;28;20454;-76
2022/04/17 03:21:39;;;;;;;0.00;0.00;;;;;;;4.61;61.39;103010.69;10413010;28;20524;-76
2022/04/17 03:33:39;;;;;;;0.00;0.00;;;;;;;4.87;59.55;103001.78;10399456;28;20037;-76
2022/04/17 03:38:41;;;;;;;0.00;0.00;;;;;;;4.85;60.02;103008.41;10406356;28;20132;-76
2022/04/17 03:43:42;;;;;;;0.00;0.00;;;;;;;5.04;59.50;103009.16;10417723;28;20124;-76
2022/04/17 03:48:44;;;;;;;0.00;0.00;;;;;;;5.02;57.68;102995.38;10413754;28;20050;-76
2022/04/17 03:53:45;;;;;;;0.00;0.00;;;;;;;5.10;55.99;102988.34;10411425;28;20504;-76
2022/04/17 03:58:47;;;;;;;0.00;0.00;;;;;;;5.02;57.14;102990.28;10394327;28;20417;-76
2022/04/17 04:03:49;;;;;;;0.00;0.00;;;;;;;4.64;58.07;102994.75;10401064;28;20044;-76
2022/04/17 04:08:51;;;;;;;0.00;0.00;;;;;;;4.98;57.57;102983.13;10400047;28;20066;-76
2022/04/17 04:13:54;;;;;;;0.00;0.00;;;;;;;5.15;57.74;102970.84;10408448;28;20092;-76
2022/04/17 04:18:55;;;;;;;0.00;0.00;;;;;;;5.00;57.52;102962.78;10410547;28;20065;-76
2022/04/17 04:23:57;;;;;;;0.00;0.00;;;;;;;4.87;57.91;102968.59;10410549;28;20053;-76
2022/04/17 04:28:59;;;;;;;0.00;0.00;;;;;;;4.87;57.76;102966.03;10413555;28;20041;-76
2022/04/17 04:34:02;;;;;;;0.68;0.68;;;;;;;4.59;59.88;102963.72;10401919;28;20560;-76
2022/04/17 04:39:04;;;;;;;0.00;0.00;;;;;;;4.52;59.03;102954.66;10401681;28;20076;-76
2022/04/17 04:44:05;;;;;;;0.00;0.00;;;;;;;4.92;57.38;102952.84;10406894;28;20407;-76
2022/04/17 04:54:28;;;;;;;25.52;23.52;;;;;;;5.18;56.88;102948.06;10389899;28;20049;-76
2022/04/17 04:59:30;;;;;;;0.00;0.00;;;;;;;5.23;56.01;102944.25;10398566;28;20436;-76
2022/04/17 05:04:34;;;;;;;1.85;1.75;;;;;;;4.62;61.64;102953.78;10409432;28;20049;-75
2022/04/17 05:09:36;;;;;;;0.00;0.00;;;;;;;4.74;60.04;102956.44;10396142;28;20073;-75
2022/04/17 05:14:41;;;;;;;0.00;0.00;;;;;;;4.65;58.25;102956.59;10408843;28;20053;-76
2022/04/17 05:19:43;;;;;;;0.00;0.00;;;;;;;5.05;58.43;102949.63;10397038;28;20519;-76
2022/04/17 05:24:45;;;;;;;0.00;0.00;;;;;;;5.68;56.63;102958.91;10401293;28;20069;-78
2022/04/17 05:29:46;;;;;;;0.00;0.00;;;;;;;5.58;57.24;102953.81;10401876;28;20061;-78
2022/04/17 05:34:48;;;;;;;0.00;0.00;;;;;;;6.08;54.56;102952.56;10393857;28;20413;-77
2022/04/17 05:39:49;;;;;;;0.00;0.00;;;;;;;6.36;54.78;102950.47;10409635;28;20128;-77
2022/04/17 05:44:52;;;;;;;0.00;0.00;;;;;;;6.71;54.76;102947.09;10401394;28;20052;-77
2022/04/17 05:49:58;;;;;;;0.00;0.00;;;;;;;7.12;53.20;102954.41;10404087;28;20049;-77
2022/04/17 05:55:09;;;;;;;0.00;0.00;;;;;;;7.23;53.01;102952.63;10384136;28;20490;-79
2022/04/17 06:00:11;;;;;;;0.00;0.00;;;;;;;7.47;51.89;102948.34;10390199;28;20046;-77
2022/04/17 06:05:17;;;;;;;0.00;0.00;;;;;;;7.54;50.78;102943.66;10399100;28;20055;-78
2022/04/17 06:10:18;;;;;;;0.20;0.20;;;;;;;7.87;50.90;102945.16;10403851;28;20493;-79
2022/04/17 06:15:20;;;;;;;0.00;0.00;;;;;;;8.17;51.88;102942.03;10402724;28;20153;-79
2022/04/17 06:20:22;;;;;;;0.00;0.00;;;;;;;8.48;49.86;102936.47;10397765;28;20045;-76
2022/04/17 06:25:23;;;;;;;0.08;0.08;;;;;;;8.94;48.72;102938.59;10390171;28;20053;-76
2022/04/17 06:30:25;;;;;;;0.00;0.00;;;;;;;9.35;49.24;102940.38;10395319;28;20049;-76
2022/04/17 06:35:27;;;;;;;0.00;0.00;;;;;;;9.91;47.90;102954.13;10387671;28;20042;-77
2022/04/17 06:40:36;;;;;;;0.00;0.00;;;;;;;10.37;46.31;102948.31;10391785;28;20057;-76
2022/04/17 06:45:40;;;;;;;0.05;0.05;;;;;;;10.30;45.13;102945.34;10397338;28;20500;-76
2022/04/17 06:50:42;;;;;;;0.03;0.03;;;;;;;11.38;46.27;102942.06;10394391;28;20519;-79
2022/04/17 06:55:46;;;;;;;0.00;0.00;;;;;;;11.23;42.88;102945.56;10403584;28;20045;-78
2022/04/17 07:00:48;;;;;;;0.00;0.00;;;;;;;11.81;42.57;102941.81;10399102;28;20045;-79
2022/04/17 07:05:51;;;;;;;1.30;1.20;;;;;;;12.21;41.99;102935.31;10401462;28;20041;-78
2022/04/17 07:10:52;;;;;;;1.55;0.75;;;;;;;12.67;40.62;102937.66;10381380;28;20045;-78
2022/04/17 07:15:54;;;;;;;0.03;0.03;;;;;;;13.20;39.05;102929.84;10389618;28;20591;-77
2022/04/17 07:20:55;;;;;;;0.25;0.20;;;;;;;12.79;38.91;102926.13;10395472;28;20041;-79
2022/04/17 07:25:57;;;;;;;1.83;1.73;;;;;;;13.92;39.26;102924.53;10401309;28;20088;-78
2022/04/17 07:31:00;;;;;;;0.47;0.43;;;;;;;13.48;37.27;102920.81;10410833;28;20049;-79
2022/04/17 07:36:02;;;;;;;0.00;0.00;;;;;;;14.08;36.55;102917.41;10407597;28;20049;-76
2022/04/17 07:41:03;;;;;;;0.25;0.13;;;;;;;13.82;37.05;102921.44;10405691;28;20120;-76
2022/04/17 07:46:05;;;;;;;0.35;0.35;;;;;;;14.04;36.50;102913.81;10437017;28;20069;-77
2022/04/17 07:51:07;;;;;;;2.63;1.20;;;;;;;13.27;38.39;102916.38;10398457;28;20049;-76
2022/04/17 07:56:10;;;;;;;2.88;0.65;;;;;;;13.19;37.66;102922.88;10420765;28;20049;-76
2022/04/17 08:01:14;;;;;;;1.25;0.65;;;;;;;13.89;37.61;102913.13;10408006;28;20069;-77
2022/04/17 08:13:17;;;;;;;3.40;1.35;;;;;;;14.18;36.93;102911.84;10381935;28;20030;-76
2022/04/17 08:18:19;;;;;;;0.15;0.08;;;;;;;14.75;37.39;102895.19;10428660;28;20417;-76
2022/04/17 08:23:20;;;;;;;1.15;0.57;;;;;;;14.95;37.11;102900.28;10423877;28;20378;-78
2022/04/17 08:28:22;;;;;;;0.57;0.30;;;;;;;15.85;33.88;102900.25;10420742;28;20100;-76
2022/04/17 08:33:26;;;;;;;2.40;1.02;;;;;;;15.07;34.73;102898.19;10415872;28;20041;-76
2022/04/17 08:38:28;;;;;;;1.00;0.55;;;;;;;15.62;35.10;102893.31;10422708;28;20080;-77
2022/04/17 08:43:30;;;;;;;1.88;0.82;;;;;;;15.57;34.14;102885.34;10423527;28;20049;-76
2022/04/17 08:48:32;;;;;;;0.03;0.03;;;;;;;16.66;32.92;102874.34;10419031;28;20124;-77
2022/04/17 08:53:35;;;;;;;0.40;0.25;;;;;;;16.59;32.35;102867.19;10454473;28;20052;-76
2022/04/17 08:58:47;;;;;;;1.27;1.00;;;;;;;15.69;31.08;102869.31;10415675;28;20044;-77
2022/04/17 09:03:48;;;;;;;0.00;0.00;;;;;;;17.57;30.72;102852.81;10416481;28;20100;-76
2022/04/17 09:09:04;;;;;;;1.77;1.20;;;;;;;15.84;33.84;102853.44;10415909;28;20052;-77
2022/04/17 09:14:06;;;;;;;1.33;0.80;;;;;;;16.52;33.10;102847.00;10422804;28;20455;-77
2022/04/17 09:19:13;;;;;;;0.00;0.00;;;;;;;18.05;30.59;102835.84;10378223;28;20073;-78
2022/04/17 09:24:16;;;;;;;0.47;0.47;;;;;;;17.52;32.08;102843.97;10393801;28;20096;-76
2022/04/17 09:29:37;;;;;;;0.00;0.00;;;;;;;19.03;28.84;102831.22;10391412;28;20447;-77
2022/04/17 09:41:56;;;;;;;0.00;0.00;;;;;;;18.73;30.53;102818.34;10417655;28;20045;-76
2022/04/17 09:46:58;;;;;;;0.22;0.22;;;;;;;18.65;30.43;102808.59;10417903;28;20041;-77
2022/04/17 09:52:07;;;;;;;0.20;0.20;;;;;;;18.61;30.46;102811.97;10409788;28;20077;-78
2022/04/17 10:04:01;;;;;;;0.10;0.10;;;;;;;20.43;26.75;102782.34;10414483;28;20041;-78
2022/04/17 10:09:11;;;;;;;0.57;0.52;;;;;;;20.16;28.42;102783.66;10408826;28;20033;-77
2022/04/17 10:14:14;;;;;;;0.00;0.00;;;;;;;20.66;27.11;102773.94;10399805;28;20037;-77
2022/04/17 10:19:19;;;;;;;0.20;0.10;;;;;;;21.36;28.39;102759.94;10399043;28;20128;-77
2022/04/17 10:31:13;;;;;;;0.00;0.00;;;;;;;19.80;27.20;102748.16;10411245;28;20111;-75
2022/04/17 10:36:34;;;;;;;0.00;0.00;;;;;;;20.50;25.29;102739.69;10413755;28;20037;-75
2022/04/17 10:41:35;;;;;;;0.00;0.00;;;;;;;21.33;27.33;102728.47;10403152;28;20076;-76
2022/04/17 10:46:51;;;;;;;0.05;0.05;;;;;;;21.23;25.52;102724.84;10405990;28;20387;-78
2022/04/17 10:51:55;;;;;;;0.40;0.40;;;;;;;20.75;25.58;102717.34;10407884;28;20073;-78
2022/04/17 10:57:00;;;;;;;0.10;0.10;;;;;;;21.97;25.85;102704.53;10411437;28;20038;-77
2022/04/17 11:02:04;;;;;;;0.00;0.00;;;;;;;20.24;24.15;102703.53;10410943;28;20091;-78
2022/04/17 11:07:06;;;;;;;0.00;0.00;;;;;;;21.69;22.94;102688.59;10406525;28;20049;-78
2022/04/17 11:12:29;;;;;;;0.15;0.13;;;;;;;20.53;24.64;102674.25;10410222;28;20507;-78
2022/04/17 11:17:32;;;;;;;0.00;0.00;;;;;;;21.22;24.29;102670.69;10396729;28;20539;-79
2022/04/17 11:22:36;;;;;;;0.00;0.00;;;;;;;21.58;24.95;102660.53;10419148;28;20049;-78
2022/04/17 11:27:45;;;;;;;0.30;0.30;;;;;;;22.09;25.48;102653.00;10428562;28;20132;-79
2022/04/17 11:33:07;;;;;;;0.00;0.00;;;;;;;21.59;25.71;102646.53;10396980;28;20469;-78
2022/04/17 11:38:09;;;;;;;0.00;0.00;;;;;;;22.78;24.75;102642.81;10418374;28;20049;-79
2022/04/17 11:43:16;;;;;;;0.00;0.00;;;;;;;22.38;24.96;102639.13;10398234;28;20048;-78
2022/04/17 11:48:18;;;;;;;2.45;0.35;;;;;;;21.48;21.78;102630.69;10405426;28;20050;-78
2022/04/17 11:53:20;;;;;;;0.00;0.00;;;;;;;22.11;22.46;102627.66;10416535;28;20056;-79
2022/04/17 11:58:26;;;;;;;0.00;0.00;;;;;;;22.48;24.64;102617.34;10411251;28;20342;-79
2022/04/17 12:04:02;;;;;;;0.00;0.00;;;;;;;21.92;24.66;102608.31;10404527;28;20107;-78
2022/04/17 12:09:04;;;;;;;0.00;0.00;;;;;;;21.63;24.33;102598.50;10419117;28;20159;-78
2022/04/17 12:14:06;;;;;;;0.00;0.00;;;;;;;21.85;23.92;102595.16;10409011;28;20413;-79
2022/04/17 12:19:14;;;;;;;0.00;0.00;;;;;;;22.14;22.43;102580.41;10453913;28;20128;-78
2022/04/17 12:24:16;;;;;;;0.00;0.00;;;;;;;21.71;24.71;102573.19;10454961;28;20049;-78
2022/04/17 12:29:18;;;;;;;0.10;0.10;;;;;;;21.18;22.34;102575.44;10445126;28;20040;-78
2022/04/17 12:34:20;;;;;;;0.00;0.00;;;;;;;21.62;22.21;102566.13;10413833;28;20057;-78
2022/04/17 12:39:32;;;;;;;0.10;0.10;;;;;;;20.76;23.16;102555.81;10413650;28;20112;-79
2022/04/17 12:44:34;;;;;;;1.15;0.63;;;;;;;19.86;21.82;102549.53;10423078;28;20045;-79
2022/04/17 12:49:36;;;;;;;0.00;0.00;;;;;;;20.92;24.13;102541.13;10453431;28;20445;-78
2022/04/17 12:54:37;;;;;;;1.20;1.00;;;;;;;20.41;22.03;102530.13;10446658;28;20259;-79
2022/04/17 12:59:55;;;;;;;0.00;0.00;;;;;;;20.51;22.04;102531.09;10413846;28;20481;-83
2022/04/17 13:05:01;;;;;;;0.17;0.17;;;;;;;20.44;22.02;102517.94;10412468;28;20455;-78
2022/04/17 13:10:04;;;;;;;2.25;1.23;;;;;;;19.33;24.33;102516.50;10413612;28;20489;-78
2022/04/17 13:15:11;;;;;;;0.00;0.00;;;;;;;21.07;24.67;102508.94;10411414;28;20053;-78
2022/04/17 13:20:16;;;;;;;0.10;0.10;;;;;;;20.69;22.10;102506.84;10413972;28;20045;-78
2022/04/17 13:25:19;;;;;;;0.38;0.20;;;;;;;19.93;22.57;102499.03;10452049;28;20053;-78
2022/04/17 13:30:22;;;;;;;0.25;0.10;;;;;;;20.66;22.87;102491.09;10433049;28;20061;-78
2022/04/17 13:35:23;;;;;;;0.45;0.30;;;;;;;19.39;24.07;102479.13;10422702;28;20047;-78
2022/04/17 13:40:25;;;;;;;0.15;0.08;;;;;;;20.10;23.98;102464.38;10453615;28;20124;-79
2022/04/17 13:45:27;;;;;;;0.32;0.22;;;;;;;20.54;22.46;102460.44;10452054;28;20056;-79
2022/04/17 13:50:29;;;;;;;0.30;0.30;;;;;;;21.13;25.86;102447.84;10444831;28;20570;-79
2022/04/17 13:55:30;;;;;;;0.10;0.10;;;;;;;20.24;23.44;102441.84;10409716;28;20164;-79
2022/04/17 14:00:32;;;;;;;0.65;0.52;;;;;;;21.33;25.48;102427.00;10419417;28;20572;-78
2022/04/17 14:05:34;;;;;;;0.00;0.00;;;;;;;19.99;22.96;102424.13;10418515;28;20398;-82
2022/04/17 14:10:36;;;;;;;0.00;0.00;;;;;;;19.64;21.04;102413.25;10411592;28;20124;-82
2022/04/17 14:15:38;;;;;;;0.00;0.00;;;;;;;19.89;21.46;102410.94;10426881;28;20079;-78
2022/04/17 14:20:42;;;;;;;0.65;0.10;;;;;;;19.66;23.33;102401.06;10450832;28;20127;-79
2022/04/17 14:25:44;;;;;;;0.00;0.00;;;;;;;20.22;23.49;102396.44;10449492;28;20136;-77
2022/04/17 14:30:46;;;;;;;1.52;1.35;;;;;;;19.58;22.32;102387.03;10410120;28;20125;-79
2022/04/17 14:35:50;;;;;;;0.00;0.00;;;;;;;19.31;23.03;102380.59;10409229;28;20420;-77
2022/04/17 14:40:53;;;;;;;0.00;0.00;;;;;;;20.02;21.96;102366.59;10415570;28;20045;-77
2022/04/17 14:45:54;;;;;;;0.00;0.00;;;;;;;19.86;24.64;102361.22;10450617;28;20118;-78
2022/04/17 14:50:57;;;;;;;0.00;0.00;;;;;;;20.15;22.70;102352.78;10449334;28;20082;-77
2022/04/17 14:56:01;;;;;;;0.00;0.00;;;;;;;19.52;21.75;102344.25;10449434;28;20036;-79
2022/04/17 15:01:02;;;;;;;0.40;0.40;;;;;;;19.51;22.01;102340.75;10448538;28;20108;-79
2022/04/17 15:06:04;;;;;;;0.43;0.43;;;;;;;19.74;22.73;102324.44;10416861;28;20076;-78
2022/04/17 15:11:06;;;;;;;0.00;0.00;;;;;;;19.72;21.70;102321.84;10444647;28;20045;-77
2022/04/17 15:16:08;;;;;;;0.00;0.00;;;;;;;19.52;22.62;102310.25;10408817;28;20132;-77
2022/04/17 15:21:09;;;;;;;0.00;0.00;;;;;;;19.65;26.44;102299.97;10415830;28;20044;-77
2022/04/17 15:26:11;;;;;;;0.08;0.08;;;;;;;19.82;22.52;102301.88;10449927;28;20575;-78
2022/04/17 15:31:16;;;;;;;0.00;0.00;;;;;;;19.54;22.49;102291.16;10430211;28;20041;-76
2022/04/17 15:36:21;;;;;;;0.40;0.40;;;;;;;19.29;22.76;102290.84;10367883;28;20457;-78
2022/04/17 15:41:26;;;;;;;0.00;0.00;;;;;;;19.72;22.79;102290.47;10368886;28;20135;-78
2022/04/17 15:51:49;;;;;;;;;;;;;;;19.48;22.71;102280.59;10415526;28;20041;-78
2022/04/17 15:56:50;;;;;;;0.00;0.00;;;;;;;19.56;22.99;102278.94;10413786;28;19967;-78
2022/04/17 16:01:52;;;;;;;0.22;0.22;;;;;;;19.30;24.19;102276.03;10426374;28;20084;-77
2022/04/17 16:06:53;;;;;;;0.20;0.15;;;;;;;19.40;23.67;102261.38;10413795;28;20056;-78
2022/04/17 16:11:55;;;;;;;0.00;0.00;;;;;;;19.37;23.08;102258.72;10414917;28;20049;-77
2022/04/17 16:16:56;;;;;;;0.00;0.00;;;;;;;19.44;24.26;102252.69;10413955;28;20052;-78
2022/04/17 16:21:58;;;;;;;0.20;0.17;;;;;;;19.43;24.15;102245.72;10413849;28;20041;-77
2022/04/17 16:26:59;;;;;;;1.02;0.57;;;;;;;19.23;24.39;102243.78;10435840;28;20052;-79
2022/04/17 16:32:01;;;;;;;0.22;0.22;;;;;;;19.45;24.90;102238.78;10421902;28;20043;-78
2022/04/17 16:37:04;;;;;;;0.00;0.00;;;;;;;19.30;24.49;102229.00;10419094;28;20122;-77
2022/04/17 16:42:06;;;;;;;0.20;0.20;;;;;;;19.04;23.39;102227.00;10454891;28;20051;-77
2022/04/17 16:47:07;;;;;;;0.10;0.10;;;;;;;19.27;25.70;102229.00;10454514;28;20102;-77
2022/04/17 16:52:09;;;;;;;0.00;0.00;;;;;;;18.80;24.27;102222.34;10438851;28;20096;-76
2022/04/17 17:02:31;;;;;;;0.00;0.00;;;;;;;18.69;25.31;102220.44;10421812;28;20143;-76
2022/04/17 17:07:32;;;;;;;0.00;0.00;;;;;;;18.50;25.03;102213.25;10413272;28;20073;-78
2022/04/17 17:12:34;;;;;;;0.00;0.00;;;;;;;18.47;25.45;102210.56;10410146;28;20437;-77
2022/04/17 17:17:36;;;;;;;0.00;0.00;;;;;;;18.37;27.95;102205.22;10417046;28;20098;-78
2022/04/17 17:22:37;;;;;;;0.00;0.00;;;;;;;18.08;26.60;102204.81;10452408;28;20385;-77
2022/04/17 17:27:39;;;;;;;0.00;0.00;;;;;;;18.16;27.90;102202.28;10418199;28;20112;-78
2022/04/17 17:32:41;;;;;;;0.00;0.00;;;;;;;17.88;25.29;102197.47;10410583;28;20045;-78
2022/04/17 17:37:43;;;;;;;0.00;0.00;;;;;;;17.83;26.26;102187.84;10409548;28;20141;-77
2022/04/17 17:42:44;;;;;;;0.00;0.00;;;;;;;17.64;26.86;102197.09;10410280;28;20473;-77
2022/04/17 17:47:46;;;;;;;0.15;0.15;;;;;;;17.58;27.08;102197.84;10409562;28;20467;-77
2022/04/17 17:52:50;;;;;;;0.00;0.00;;;;;;;17.43;28.93;102193.25;10415290;28;20076;-77
2022/04/17 17:57:52;;;;;;;0.00;0.00;;;;;;;17.07;28.05;102190.00;10451544;28;20146;-77
2022/04/17 18:02:54;;;;;;;0.00;0.00;;;;;;;16.97;29.34;102182.84;10438594;28;20072;-76
2022/04/17 18:18:36;;;;;;;0.00;0.00;;;;;;;15.64;32.28;102192.78;10450854;28;20370;-77
2022/04/17 18:23:37;;;;;;;0.00;0.00;;;;;;;15.70;30.44;102187.75;10434021;28;20121;-76
2022/04/17 18:28:39;;;;;;;0.00;0.00;;;;;;;15.48;30.89;102184.59;10392159;28;20060;-77
2022/04/17 18:33:40;;;;;;;0.00;0.00;;;;;;;15.00;32.63;102185.03;10424830;28;20133;-77
2022/04/17 18:38:42;;;;;;;0.00;0.00;;;;;;;14.80;33.07;102193.13;10450325;28;20151;-77
2022/04/17 18:43:44;;;;;;;0.00;0.00;;;;;;;14.50;32.70;102188.75;10449463;28;20080;-77
2022/04/17 18:48:45;;;;;;;0.00;0.00;;;;;;;14.40;34.14;102191.91;10421432;28;20136;-74
2022/04/17 18:53:47;;;;;;;0.00;0.00;;;;;;;14.11;33.56;102184.09;10379095;28;20103;-74
2022/04/17 18:58:48;;;;;;;0.00;0.00;;;;;;;14.00;33.75;102188.03;10387144;28;20041;-74
2022/04/17 19:03:50;;;;;;;0.00;0.00;;;;;;;13.77;33.40;102193.34;10398180;28;20075;-75
2022/04/17 19:08:55;;;;;;;0.00;0.00;;;;;;;13.82;33.84;102186.59;10378414;28;20041;-73
2022/04/17 19:13:59;;;;;;;0.00;0.00;;;;;;;13.61;32.97;102197.16;10368705;28;20077;-74
2022/04/17 19:19:03;;;;;;;0.00;0.00;;;;;;;13.43;33.92;102197.41;10403701;28;20076;-74
2022/04/17 19:24:05;;;;;;;0.00;0.00;;;;;;;13.64;33.11;102186.88;10416926;28;20128;-74
2022/04/17 19:29:06;;;;;;;0.00;0.00;;;;;;;13.39;33.53;102179.97;10416918;28;20548;-73
2022/04/17 19:39:32;;;;;;;0.00;0.00;;;;;;;13.26;33.85;102174.34;10416401;28;20043;-74
2022/04/17 19:44:33;;;;;;;0.00;0.00;;;;;;;13.27;33.84;102176.13;10416279;28;20077;-75
2022/04/17 19:49:35;;;;;;;0.00;0.00;;;;;;;13.12;34.25;102175.56;10399361;28;20095;-74
2022/04/17 19:54:37;;;;;;;0.00;0.00;;;;;;;12.99;34.40;102177.69;10413998;28;20453;-74
2022/04/17 19:59:39;;;;;;;0.00;0.00;;;;;;;12.94;33.35;102171.47;10397418;28;20076;-74
2022/04/17 20:04:42;;;;;;;0.00;0.00;;;;;;;13.01;33.03;102163.13;10414965;28;20140;-74
2022/04/17 20:09:44;;;;;;;0.00;0.00;;;;;;;12.80;34.34;102157.16;10415345;28;20065;-74
2022/04/17 20:14:45;;;;;;;0.00;0.00;;;;;;;12.68;34.44;102155.91;10410800;28;20440;-74
2022/04/17 20:19:47;;;;;;;0.00;0.00;;;;;;;12.63;34.83;102153.97;10414861;28;20475;-74
2022/04/17 20:24:48;;;;;;;0.00;0.00;;;;;;;12.46;35.40;102140.41;10412821;28;20099;-74
2022/04/17 20:29:50;;;;;;;0.00;0.00;;;;;;;12.22;35.27;102139.50;10412365;28;20490;-74
2022/04/17 20:34:51;;;;;;;0.00;0.00;;;;;;;12.03;35.73;102140.47;10423809;28;20034;-75
2022/04/17 20:39:53;;;;;;;0.00;0.00;;;;;;;11.93;35.58;102133.16;10412855;28;20124;-75
2022/04/17 20:50:33;;;;;;;0.00;0.00;;;;;;;11.34;36.62;102127.28;10413496;28;20041;-74
2022/04/17 20:55:36;;;;;;;0.00;0.00;;;;;;;11.40;36.49;102125.84;10412668;28;20049;-75
2022/04/17 21:00:39;;;;;;;0.00;0.00;;;;;;;11.28;37.39;102125.34;10411485;28;20132;-74
2022/04/17 21:05:40;;;;;;;0.00;0.00;;;;;;;11.40;36.48;102130.13;10409056;28;20054;-74
2022/04/17 21:10:45;;;;;;;0.00;0.00;;;;;;;11.36;36.46;102117.91;10411281;28;20041;-75
2022/04/17 21:15:47;;;;;;;2.15;1.77;;;;;;;11.27;36.90;102123.59;10403977;28;20042;-74
2022/04/17 21:20:50;;;;;;;0.00;0.00;;;;;;;11.44;36.68;102111.38;10400601;28;20053;-78
2022/04/17 21:25:52;;;;;;;0.00;0.00;;;;;;;11.49;35.54;102106.41;10411757;28;20060;-78
2022/04/17 21:30:53;;;;;;;0.00;0.00;;;;;;;11.54;36.24;102105.78;10411029;28;20103;-78
2022/04/17 21:35:55;;;;;;;0.00;0.00;;;;;;;11.35;35.60;102098.09;10411455;28;20045;-78
2022/04/17 21:40:57;;;;;;;0.00;0.00;;;;;;;11.24;36.35;102097.66;10410331;28;20053;-78
2022/04/17 21:46:01;;;;;;;0.00;0.00;;;;;;;11.35;36.78;102087.78;10411360;28;20539;-78
2022/04/17 21:51:05;;;;;;;0.00;0.00;;;;;;;11.17;36.58;102082.72;10410579;28;20041;-78
2022/04/17 21:56:07;;;;;;;0.00;0.00;;;;;;;11.18;36.29;102081.91;10410895;28;20061;-78
2022/04/17 22:06:31;;;;;;;7.25;6.80;;;;;;;11.11;37.09;102078.19;10410433;28;20095;-78
2022/04/17 22:11:32;;;;;;;0.28;0.28;;;;;;;11.27;35.01;102077.16;10410082;28;20554;-78
2022/04/17 22:16:34;;;;;;;0.00;0.00;;;;;;;11.37;35.55;102074.13;10410858;28;20041;-78
2022/04/17 22:21:36;;;;;;;0.00;0.00;;;;;;;11.27;35.25;102082.31;10403715;28;20049;-78
2022/04/17 22:26:37;;;;;;;0.00;0.00;;;;;;;11.00;36.79;102082.88;10401798;28;20120;-78
2022/04/17 22:31:52;;;;;;;0.00;0.00;;;;;;;10.81;37.61;102081.19;10407638;28;20041;-77
2022/04/17 22:36:53;;;;;;;0.13;0.13;;;;;;;10.77;37.64;102082.75;10408640;28;20073;-78
2022/04/17 22:41:55;;;;;;;2.67;2.55;;;;;;;10.93;36.47;102088.59;10416525;28;20052;-79
2022/04/17 22:46:56;;;;;;;3.00;2.80;;;;;;;10.88;37.30;102078.06;10412129;28;20059;-75
2022/04/17 22:51:58;;;;;;;0.00;0.00;;;;;;;10.67;37.65;102072.88;10413209;28;20083;-75
2022/04/17 22:56:59;;;;;;;0.00;0.00;;;;;;;10.61;37.51;102078.63;10418492;28;20504;-74
2022/04/17 23:02:01;;;;;;;0.00;0.00;;;;;;;10.61;37.54;102077.75;10417818;28;20465;-74
2022/04/17 23:07:04;;;;;;;0.00;0.00;;;;;;;10.62;37.41;102071.75;10442618;28;20099;-74
2022/04/17 23:12:06;;;;;;;0.00;0.00;;;;;;;10.56;37.61;102074.06;10458598;28;20427;-74
2022/04/17 23:17:08;;;;;;;0.00;0.00;;;;;;;10.62;37.42;102075.25;10432352;28;20049;-74
2022/04/17 23:22:09;;;;;;;0.00;0.00;;;;;;;10.59;37.29;102069.06;10415832;28;20049;-74
2022/04/17 23:27:12;;;;;;;0.00;0.00;;;;;;;10.55;37.48;102067.16;10439591;28;20490;-74
2022/04/17 23:32:13;;;;;;;0.00;0.00;;;;;;;10.36;38.55;102063.72;10432569;28;20069;-75
2022/04/17 23:37:15;;;;;;;0.00;0.00;;;;;;;9.81;39.87;102064.63;10415903;28;20385;-74
2022/04/17 23:42:16;;;;;;;0.00;0.00;;;;;;;9.82;39.78;102056.97;10445298;28;20136;-74
2022/04/17 23:47:18;;;;;;;0.00;0.00;;;;;;;9.95;39.29;102048.13;10456772;28;20142;-74
2022/04/17 23:52:20;;;;;;;0.08;0.08;;;;;;;9.74;40.43;102053.13;10426705;28;20049;-74
2022/04/17 23:57:22;;;;;;;0.00;0.00;;;;;;;9.82;39.22;102048.38;10414785;28;20061;-74
